Du har inga inställningar för hoppväder.nu

Hoppväder.nu

Senast uppdaterat 02:50

UTC-tid

2019-07-24 kl. 00:50


Sol och måne

Solen går upp 4:21 och går ner 22:48 (beräknade cirkatider)
Nästa fullmåne blir om 22 dagar (2019-08-15)

METAR

ESSD (Borlänge)
(30 minuter sedan)
ESSD 240020Z AUTO 25004KT 9999 NCD 13/13 Q1018=



ESOE (Örebro)
(30 minuter sedan)
ESOE 240020Z AUTO 22002KT 0200 R01/1400U R19/P2000N NCD 14/12 Q1018=



ESOW (Västerås)
(30 minuter sedan)
ESOW 240020Z AUTO 00000KT 0150 R01/0600D R19/0700N BCFG NCD 13/12 Q1018=



ESOK (Karlstad)
(30 minuter sedan)
ESOK 240020Z AUTO 00000KT 9999 R03/P1500N R21///// BCFG NCD 15/15 Q1018=






TAF

ESSD (Borlänge)
ESSD



ESOE (Örebro)
(256 minuter sedan)
ESOE AMD 232034Z 2321/2401 VRB02KT CAVOK TEMPO 2321/2323 0300 BCFG PROB40 2323/2401 0300 FG VV002=



ESOW (Västerås)
ESOW



ESOK (Karlstad)
ESOK





Kodnycklar till TAF och METAR






LHP

(Borlänge är område F2a i Norra delen)

Prognos är inte uppdaterad




Spotting

Hur fungerar spotthjälpen och Vindkartan?

Markvind är ca 0 m/s.



Vindkartan

Senast uppdaterad 02:50




All data kommer från LFV.se